Terminal Aerodrome Forecast
Issued by NWS Charleston, WV

Current Version | Previous Version | Graphics & Text | Print | Product List | Glossary On
Versions: 1 2 3 4 5 6 7 8 9 10 11 12 13 14 15 16 17 18 19 20 21
000
FTUS41 KRLX 240500 RRA
TAFPKB
TAF
KPKB 240557Z 2406/2506 34005KT 1SM -SN BR OVC002
      TEMPO 2406/2408 1/2SM SN OVC004
     FM240900 31005KT 2SM -SN BR OVC004
     FM241100 31007KT 4SM -SN OVC004
     FM241300 26006KT P6SM BKN008
     FM241600 26006KT P6SM BKN015
     FM241800 24008KT P6SM BKN030=

USA.gov is the U.S. government's official web portal to all federal, state and local government web resources and services.